createdAt,value
2016-10-23T00:00:08.046Z,0
2016-10-23T00:01:07.791Z,0
2016-10-23T00:02:08.472Z,0
2016-10-23T00:03:07.803Z,0
2016-10-23T00:04:08.093Z,0
2016-10-23T00:05:09.232Z,0
2016-10-23T00:06:08.119Z,0
2016-10-23T00:07:08.092Z,0
2016-10-23T00:08:07.795Z,0
2016-10-23T00:09:08.429Z,0
2016-10-23T00:10:07.800Z,0
2016-10-23T00:11:08.512Z,0
2016-10-23T00:12:07.818Z,0
2016-10-23T00:13:07.823Z,0
2016-10-23T00:14:07.827Z,0
2016-10-23T00:15:08.251Z,0
2016-10-23T00:16:07.839Z,0
2016-10-23T00:17:07.853Z,0
2016-10-23T00:18:07.905Z,0
2016-10-23T00:19:08.174Z,0
2016-10-23T00:20:07.911Z,0
2016-10-23T00:21:08.288Z,0
2016-10-23T00:22:08.810Z,0
2016-10-23T00:23:08.218Z,0
2016-10-23T00:24:08.263Z,0
2016-10-23T00:25:08.532Z,0
2016-10-23T00:26:08.211Z,0
2016-10-23T00:27:07.969Z,0
2016-10-23T00:28:08.292Z,0
2016-10-23T00:29:07.938Z,0
2016-10-23T00:30:08.303Z,0
2016-10-23T00:31:08.261Z,0
2016-10-23T00:32:08.316Z,0
2016-10-23T00:33:08.100Z,0
2016-10-23T00:34:08.333Z,0
2016-10-23T00:35:08.347Z,0
2016-10-23T00:36:08.082Z,0
2016-10-23T00:37:08.354Z,0
2016-10-23T00:38:08.357Z,0
2016-10-23T00:39:08.412Z,0
2016-10-23T00:40:08.570Z,0
2016-10-23T00:41:08.642Z,0
2016-10-23T00:42:08.649Z,0
2016-10-23T00:43:08.653Z,0
2016-10-23T00:44:08.669Z,0
2016-10-23T00:45:08.194Z,0
2016-10-23T00:46:08.056Z,0
2016-10-23T00:47:08.362Z,0
2016-10-23T00:48:08.375Z,0
2016-10-23T00:49:08.067Z,0
2016-10-23T00:50:08.805Z,0
2016-10-23T00:51:08.399Z,0
2016-10-23T00:52:08.092Z,0
2016-10-23T00:53:08.100Z,0
2016-10-23T00:54:08.781Z,0
2016-10-23T00:55:08.162Z,0
2016-10-23T00:56:08.441Z,0
2016-10-23T00:57:08.490Z,0
2016-10-23T00:58:08.451Z,0
2016-10-23T00:59:08.145Z,0
2016-10-23T01:00:08.614Z,0
2016-10-23T01:01:08.783Z,0
2016-10-23T01:02:08.166Z,0
2016-10-23T01:03:08.517Z,0
2016-10-23T01:04:08.804Z,0
2016-10-23T01:05:08.553Z,0
2016-10-23T01:06:08.610Z,0
2016-10-23T01:07:08.243Z,0
2016-10-23T01:08:08.254Z,0
2016-10-23T01:09:08.558Z,0
2016-10-23T01:10:08.529Z,0
2016-10-23T01:11:08.277Z,0
2016-10-23T01:12:08.856Z,0
2016-10-23T01:13:08.909Z,0
2016-10-23T01:14:08.244Z,0
2016-10-23T01:15:08.572Z,0
2016-10-23T01:16:08.366Z,0
2016-10-23T01:17:08.579Z,0
2016-10-23T01:18:08.619Z,0
2016-10-23T01:19:08.951Z,0
2016-10-23T01:20:08.913Z,0
2016-10-23T01:21:08.658Z,0
2016-10-23T01:22:08.350Z,0
2016-10-23T01:23:08.406Z,0
2016-10-23T01:24:08.363Z,0
2016-10-23T01:25:08.415Z,0
2016-10-23T01:26:08.689Z,0
2016-10-23T01:27:08.071Z,0
2016-10-23T01:28:08.968Z,0
2016-10-23T01:29:08.990Z,0
2016-10-23T01:30:08.410Z,0
2016-10-23T01:31:09.038Z,0
2016-10-23T01:32:08.685Z,0
2016-10-23T01:33:08.996Z,0
2016-10-23T01:34:08.387Z,0
2016-10-23T01:35:09.015Z,0
2016-10-23T01:36:09.028Z,0
2016-10-23T01:37:08.243Z,0
2016-10-23T01:38:09.117Z,0
2016-10-23T01:39:08.729Z,0
2016-10-23T01:40:08.426Z,0
2016-10-23T01:41:08.482Z,0
2016-10-23T01:42:08.749Z,0
2016-10-23T01:43:08.809Z,0
2016-10-23T01:44:08.501Z,0
2016-10-23T01:45:08.199Z,0
2016-10-23T01:46:08.778Z,0
2016-10-23T01:47:08.786Z,0
2016-10-23T01:48:08.534Z,0
2016-10-23T01:49:08.804Z,0
2016-10-23T01:50:08.805Z,0
2016-10-23T01:51:08.825Z,0
2016-10-23T01:52:08.819Z,0
2016-10-23T01:53:09.195Z,0
2016-10-23T01:54:08.573Z,0
2016-10-23T01:55:08.531Z,0
2016-10-23T01:56:09.213Z,0
2016-10-23T01:57:09.221Z,0
2016-10-23T01:58:08.604Z,0
2016-10-23T01:59:08.551Z,0
2016-10-23T02:00:08.937Z,0
2016-10-23T02:01:08.366Z,0
2016-10-23T02:02:09.205Z,0
2016-10-23T02:03:08.589Z,0
2016-10-23T02:04:08.947Z,0
2016-10-23T02:05:08.598Z,0
2016-10-23T02:06:08.969Z,0
2016-10-23T02:07:09.344Z,0
2016-10-23T02:08:08.935Z,0
2016-10-23T02:09:09.303Z,0
2016-10-23T02:10:08.426Z,0
2016-10-23T02:11:08.695Z,0
2016-10-23T02:12:08.384Z,0
2016-10-23T02:13:08.660Z,0
2016-10-23T02:14:09.339Z,0
2016-10-23T02:15:09.348Z,0
2016-10-23T02:16:08.730Z,0
2016-10-23T02:17:08.997Z,0
2016-10-23T02:18:08.695Z,0
2016-10-23T02:19:09.011Z,0
2016-10-23T02:20:09.386Z,0
2016-10-23T02:21:09.476Z,0
2016-10-23T02:22:08.720Z,0
2016-10-23T02:23:08.758Z,0
2016-10-23T02:24:08.789Z,0
2016-10-23T02:25:08.477Z,0
2016-10-23T02:26:09.164Z,0
2016-10-23T02:27:09.071Z,0
2016-10-23T02:28:08.767Z,0
2016-10-23T02:29:08.459Z,0
2016-10-23T02:30:08.468Z,0
2016-10-23T02:31:09.099Z,0
2016-10-23T02:32:08.527Z,0
2016-10-23T02:33:09.437Z,0
2016-10-23T02:34:09.205Z,0
2016-10-23T02:35:09.130Z,0
2016-10-23T02:36:08.826Z,0
2016-10-23T02:37:09.349Z,0
2016-10-23T02:38:09.199Z,0
2016-10-23T02:39:08.893Z,0
2016-10-23T02:40:09.245Z,0
2016-10-23T02:41:09.588Z,0
2016-10-23T02:42:09.268Z,0
2016-10-23T02:43:09.232Z,0
2016-10-23T02:44:09.516Z,0
2016-10-23T02:45:08.969Z,0
2016-10-23T02:46:08.902Z,0
2016-10-23T02:47:09.262Z,0
2016-10-23T02:48:09.596Z,0
2016-10-23T02:49:08.961Z,0
2016-10-23T02:50:09.289Z,0
2016-10-23T02:51:09.551Z,0
2016-10-23T02:52:08.937Z,0
2016-10-23T02:53:08.996Z,0
2016-10-23T02:54:09.155Z,0
2016-10-23T02:55:09.712Z,0
2016-10-23T02:56:09.055Z,0
2016-10-23T02:57:09.357Z,0
2016-10-23T02:58:08.764Z,0
2016-10-23T02:59:09.087Z,0
2016-10-23T03:00:09.619Z,0
2016-10-23T03:01:08.694Z,0
2016-10-23T03:02:09.733Z,0
2016-10-23T03:03:09.379Z,0
2016-10-23T03:04:09.127Z,0
2016-10-23T03:05:09.030Z,0
2016-10-23T03:06:09.665Z,0
2016-10-23T03:07:09.668Z,0
2016-10-23T03:08:09.724Z,0
2016-10-23T03:09:09.064Z,0
2016-10-23T03:10:09.739Z,0
2016-10-23T03:11:09.780Z,0
2016-10-23T03:12:09.179Z,0
2016-10-23T03:13:09.524Z,0
2016-10-23T03:14:08.832Z,0
2016-10-23T03:15:09.464Z,0
2016-10-23T03:16:09.426Z,0
2016-10-23T03:17:09.429Z,0
2016-10-23T03:18:09.744Z,0
2016-10-23T03:19:09.179Z,0
2016-10-23T03:20:09.500Z,0
2016-10-23T03:21:09.503Z,0
2016-10-23T03:22:08.839Z,0
2016-10-23T03:23:09.474Z,0
2016-10-23T03:24:09.212Z,0
2016-10-23T03:25:09.541Z,0
2016-10-23T03:26:09.640Z,0
2016-10-23T03:27:09.907Z,0
2016-10-23T03:28:09.606Z,0
2016-10-23T03:29:09.521Z,0
2016-10-23T03:30:10.070Z,0
2016-10-23T03:31:09.634Z,0
2016-10-23T03:32:09.271Z,0
2016-10-23T03:33:09.546Z,0
2016-10-23T03:34:09.235Z,0
2016-10-23T03:35:09.901Z,0
2016-10-23T03:36:09.299Z,0
2016-10-23T03:37:09.571Z,0
2016-10-23T03:38:09.582Z,0
2016-10-23T03:39:09.906Z,0
2016-10-23T03:40:09.290Z,0
2016-10-23T03:41:09.851Z,0
2016-10-23T03:42:09.763Z,0
2016-10-23T03:43:09.305Z,0
2016-10-23T03:44:09.672Z,0
2016-10-23T03:45:10.075Z,0
2016-10-23T03:46:09.113Z,0
2016-10-23T03:47:10.005Z,0
2016-10-23T03:48:10.045Z,0
2016-10-23T03:49:09.392Z,0
2016-10-23T03:50:09.403Z,0
2016-10-23T03:51:09.985Z,0
2016-10-23T03:52:09.732Z,0
2016-10-23T03:53:10.006Z,0
2016-10-23T03:54:09.741Z,0
2016-10-23T03:55:09.756Z,0
2016-10-23T03:56:09.759Z,0
2016-10-23T03:57:10.136Z,0
2016-10-23T03:58:10.083Z,0
2016-10-23T03:59:09.832Z,0
2016-10-23T04:00:10.097Z,0
2016-10-23T04:01:09.874Z,0
2016-10-23T04:02:09.753Z,0
2016-10-23T04:03:09.501Z,0
2016-10-23T04:04:09.763Z,0
2016-10-23T04:05:10.081Z,0
2016-10-23T04:06:09.466Z,0
2016-10-23T04:07:09.320Z,0
2016-10-23T04:08:10.114Z,0
2016-10-23T04:09:09.847Z,0
2016-10-23T04:10:10.223Z,0
2016-10-23T04:11:10.127Z,0
2016-10-23T04:12:09.919Z,0
2016-10-23T04:13:09.865Z,0
2016-10-23T04:14:09.531Z,0
2016-10-23T04:15:09.265Z,0
2016-10-23T04:16:09.897Z,0
2016-10-23T04:17:09.541Z,0
2016-10-23T04:18:09.909Z,0
2016-10-23T04:19:09.241Z,0
2016-10-23T04:20:09.616Z,0
2016-10-23T04:21:09.563Z,0
2016-10-23T04:22:09.271Z,0
2016-10-23T04:23:09.960Z,0
2016-10-23T04:24:09.963Z,0
2016-10-23T04:25:10.021Z,0
2016-10-23T04:26:09.295Z,0
2016-10-23T04:27:09.928Z,0
2016-10-23T04:28:10.041Z,0
2016-10-23T04:29:09.991Z,0
2016-10-23T04:30:09.947Z,0
2016-10-23T04:31:10.010Z,0
2016-10-23T04:32:10.014Z,0
2016-10-23T04:33:09.792Z,0
2016-10-23T04:34:09.764Z,0
2016-10-23T04:35:10.298Z,0
2016-10-23T04:36:09.364Z,0
2016-10-23T04:37:10.312Z,0
2016-10-23T04:38:09.744Z,0
2016-10-23T04:39:10.010Z,0
2016-10-23T04:40:09.705Z,0
2016-10-23T04:41:10.027Z,0
2016-10-23T04:42:10.037Z,0
2016-10-23T04:43:10.043Z,0
2016-10-23T04:44:09.735Z,0
2016-10-23T04:45:10.371Z,0
2016-10-23T04:46:10.064Z,0
2016-10-23T04:47:10.381Z,0
2016-10-23T04:48:09.811Z,0
2016-10-23T04:49:09.896Z,0
2016-10-23T04:50:10.144Z,0
2016-10-23T04:51:10.150Z,0
2016-10-23T04:52:10.106Z,0
2016-10-23T04:53:09.802Z,0
2016-10-23T04:54:10.486Z,0
2016-10-23T04:55:10.174Z,0
2016-10-23T04:56:09.816Z,0
2016-10-23T04:57:10.142Z,0
2016-10-23T04:58:10.201Z,0
2016-10-23T04:59:09.848Z,0
2016-10-23T05:00:10.212Z,0
2016-10-23T05:01:10.533Z,0
2016-10-23T05:02:09.549Z,0
2016-10-23T05:03:10.231Z,0
2016-10-23T05:04:10.515Z,0
2016-10-23T05:05:10.567Z,0
2016-10-23T05:06:10.270Z,0
2016-10-23T05:07:10.525Z,0
2016-10-23T05:08:10.301Z,0
2016-10-23T05:09:10.224Z,0
2016-10-23T05:10:10.543Z,0
2016-10-23T05:11:09.932Z,0
2016-10-23T05:12:09.992Z,0
2016-10-23T05:13:10.615Z,0
2016-10-23T05:14:09.946Z,0
2016-10-23T05:15:10.322Z,0
2016-10-23T05:16:10.332Z,0
2016-10-23T05:17:10.336Z,0
2016-10-23T05:18:10.293Z,0
2016-10-23T05:19:10.615Z,0
2016-10-23T05:20:10.674Z,0
2016-10-23T05:21:10.357Z,0
2016-10-23T05:22:10.357Z,0
2016-10-23T05:23:10.016Z,0
2016-10-23T05:24:10.666Z,0
2016-10-23T05:25:10.337Z,0
2016-10-23T05:26:10.033Z,0
2016-10-23T05:27:10.047Z,0
2016-10-23T05:28:10.419Z,0
2016-10-23T05:29:25.243Z,0
2016-10-23T05:30:10.063Z,0
2016-10-23T05:31:10.074Z,0
2016-10-23T05:32:10.753Z,0
2016-10-23T05:33:10.086Z,0
2016-10-23T05:34:10.720Z,0
2016-10-23T05:35:10.725Z,0
2016-10-23T05:36:10.160Z,0
2016-10-23T05:37:09.849Z,4
2016-10-23T05:38:11.537Z,4
2016-10-23T05:39:10.538Z,4
2016-10-23T05:40:10.811Z,4
2016-10-23T05:41:10.457Z,4
2016-10-23T05:42:09.935Z,4
2016-10-23T05:43:10.467Z,0
2016-10-23T05:44:10.882Z,0
2016-10-23T05:45:10.798Z,4
2016-10-23T05:46:10.801Z,4
2016-10-23T05:47:10.499Z,4
2016-10-23T05:48:10.879Z,4
2016-10-23T05:49:10.518Z,4
2016-10-23T05:50:10.308Z,8
2016-10-23T05:51:10.633Z,4
2016-10-23T05:52:10.598Z,8
2016-10-23T05:53:09.966Z,4
2016-10-23T05:54:10.553Z,8
2016-10-23T05:55:10.917Z,8
2016-10-23T05:56:10.563Z,8
2016-10-23T05:57:10.257Z,8
2016-10-23T05:58:10.893Z,16
2016-10-23T05:59:10.583Z,16
2016-10-23T06:00:10.905Z,16
2016-10-23T06:01:10.289Z,16
2016-10-23T06:02:10.655Z,20
2016-10-23T06:03:10.661Z,20
2016-10-23T06:04:10.410Z,24
2016-10-23T06:05:10.625Z,28
2016-10-23T06:06:10.062Z,28
2016-10-23T06:07:10.013Z,36
2016-10-23T06:08:10.386Z,36
2016-10-23T06:09:10.755Z,40
2016-10-23T06:10:10.352Z,40
2016-10-23T06:11:11.035Z,44
2016-10-23T06:12:10.678Z,48
2016-10-23T06:13:10.738Z,56
2016-10-23T06:14:10.378Z,60
2016-10-23T06:15:10.754Z,68
2016-10-23T06:16:11.020Z,72
2016-10-23T06:17:10.716Z,76
2016-10-23T06:18:10.468Z,84
2016-10-23T06:19:10.976Z,92
2016-10-23T06:20:10.116Z,100
2016-10-23T06:21:10.431Z,104
2016-10-23T06:22:10.752Z,112
2016-10-23T06:23:10.584Z,120
2016-10-23T06:24:10.855Z,124
2016-10-23T06:25:11.135Z,136
2016-10-23T06:26:10.473Z,140
2016-10-23T06:27:11.160Z,148
2016-10-23T06:28:10.487Z,164
2016-10-23T06:29:10.955Z,168
2016-10-23T06:30:10.791Z,176
2016-10-23T06:31:10.859Z,184
2016-10-23T06:32:10.542Z,188
2016-10-23T06:33:10.210Z,196
2016-10-23T06:34:10.217Z,208
2016-10-23T06:35:10.895Z,216
2016-10-23T06:36:10.363Z,228
2016-10-23T06:37:10.861Z,244
2016-10-23T06:38:10.552Z,260
2016-10-23T06:39:10.615Z,268
2016-10-23T06:40:10.974Z,280
2016-10-23T06:41:10.993Z,284
2016-10-23T06:42:11.214Z,284
2016-10-23T06:43:10.901Z,296
2016-10-23T06:44:10.919Z,312
2016-10-23T06:45:11.232Z,324
2016-10-23T06:46:10.922Z,332
2016-10-23T06:47:10.731Z,336
2016-10-23T06:48:10.948Z,340
2016-10-23T06:49:10.635Z,352
2016-10-23T06:50:10.645Z,352
2016-10-23T06:51:10.651Z,372
2016-10-23T06:52:10.975Z,384
2016-10-23T06:53:11.377Z,396
2016-10-23T06:54:10.972Z,400
2016-10-23T06:55:11.419Z,420
2016-10-23T06:56:11.097Z,428
2016-10-23T06:57:10.742Z,440
2016-10-23T06:58:10.946Z,436
2016-10-23T06:59:11.019Z,440
2016-10-23T07:00:11.080Z,448
2016-10-23T07:01:10.726Z,452
2016-10-23T07:02:10.471Z,448
2016-10-23T07:03:11.050Z,452
2016-10-23T07:04:10.744Z,472
2016-10-23T07:05:11.062Z,508
2016-10-23T07:06:10.761Z,564
2016-10-23T07:07:11.072Z,592
2016-10-23T07:08:10.820Z,616
2016-10-23T07:09:11.141Z,632
2016-10-23T07:10:11.102Z,668
2016-10-23T07:11:11.476Z,684
2016-10-23T07:12:10.586Z,724
2016-10-23T07:13:10.500Z,744
2016-10-23T07:14:11.130Z,736
2016-10-23T07:15:11.386Z,796
2016-10-23T07:16:11.142Z,836
2016-10-23T07:17:10.535Z,836
2016-10-23T07:18:11.471Z,848
2016-10-23T07:19:11.168Z,864
2016-10-23T07:20:11.489Z,848
2016-10-23T07:21:10.921Z,884
2016-10-23T07:22:11.290Z,868
2016-10-23T07:23:10.914Z,880
2016-10-23T07:24:11.243Z,940
2016-10-23T07:25:10.590Z,940
2016-10-23T07:26:11.272Z,1008
2016-10-23T07:27:10.654Z,1036
2016-10-23T07:28:11.732Z,1024
2016-10-23T07:29:10.926Z,1072
2016-10-23T07:30:10.981Z,1044
2016-10-23T07:31:11.259Z,1040
2016-10-23T07:32:11.263Z,988
2016-10-23T07:33:11.267Z,980
2016-10-23T07:34:11.013Z,960
2016-10-23T07:35:11.334Z,1060
2016-10-23T07:36:11.656Z,1060
2016-10-23T07:37:11.021Z,1108
2016-10-23T07:38:11.362Z,1100
2016-10-23T07:39:10.999Z,1120
2016-10-23T07:40:11.354Z,1124
2016-10-23T07:41:10.754Z,1264
2016-10-23T07:42:10.712Z,1272
2016-10-23T07:43:11.163Z,1288
2016-10-23T07:44:10.778Z,1292
2016-10-23T07:45:11.357Z,1252
2016-10-23T07:46:11.102Z,1336
2016-10-23T07:47:11.685Z,1336
2016-10-23T07:48:11.064Z,1388
2016-10-23T07:49:10.760Z,1280
2016-10-23T07:50:11.392Z,1368
2016-10-23T07:51:11.452Z,1396
2016-10-23T07:52:11.773Z,1568
2016-10-23T07:53:11.155Z,1648
2016-10-23T07:54:11.151Z,1564
2016-10-23T07:55:11.726Z,1480
2016-10-23T07:56:11.440Z,1544
2016-10-23T07:57:11.230Z,2016
2016-10-23T07:58:11.189Z,1872
2016-10-23T07:59:11.513Z,2144
2016-10-23T08:00:10.942Z,1940
2016-10-23T08:01:11.475Z,1936
2016-10-23T08:02:11.530Z,2024
2016-10-23T08:03:11.229Z,1556
2016-10-23T08:04:10.920Z,1504
2016-10-23T08:05:11.489Z,1660
2016-10-23T08:06:11.512Z,1980
2016-10-23T08:07:11.262Z,2148
2016-10-23T08:08:11.528Z,2784
2016-10-23T08:09:11.534Z,3396
2016-10-23T08:10:11.596Z,3556
2016-10-23T08:11:11.295Z,3160
2016-10-23T08:12:11.918Z,2584
2016-10-23T08:13:11.004Z,2820
2016-10-23T08:14:11.260Z,3028
2016-10-23T08:15:11.681Z,1836
2016-10-23T08:16:11.644Z,1788
2016-10-23T08:17:11.702Z,1876
2016-10-23T08:18:11.656Z,1996
2016-10-23T08:19:11.608Z,2316
2016-10-23T08:20:11.615Z,1840
2016-10-23T08:21:11.666Z,1672
2016-10-23T08:22:11.692Z,1712
2016-10-23T08:23:12.203Z,2156
2016-10-23T08:24:11.122Z,1760
2016-10-23T08:25:11.716Z,1692
2016-10-23T08:26:12.266Z,1816
2016-10-23T08:27:11.363Z,1768
2016-10-23T08:28:11.415Z,1748
2016-10-23T08:29:11.374Z,1556
2016-10-23T08:30:11.482Z,1480
2016-10-23T08:31:11.703Z,1748
2016-10-23T08:32:12.021Z,1744
2016-10-23T08:33:11.729Z,1876
2016-10-23T08:34:11.727Z,1748
2016-10-23T08:35:11.428Z,1400
2016-10-23T08:36:12.050Z,1616
2016-10-23T08:37:11.517Z,1496
2016-10-23T08:38:11.448Z,1288
2016-10-23T08:39:11.458Z,1156
2016-10-23T08:40:12.086Z,1304
2016-10-23T08:41:11.883Z,1308
2016-10-23T08:42:11.965Z,1428
2016-10-23T08:43:11.485Z,1320
2016-10-23T08:44:12.112Z,1256
2016-10-23T08:45:11.187Z,1180
2016-10-23T08:46:11.864Z,1116
2016-10-23T08:47:11.560Z,1156
2016-10-23T08:48:11.826Z,1220
2016-10-23T08:49:11.844Z,1308
2016-10-23T08:50:11.589Z,1612
2016-10-23T08:51:12.220Z,2116
2016-10-23T08:52:11.862Z,3008
2016-10-23T08:53:11.609Z,2316
2016-10-23T08:54:11.969Z,2784
2016-10-23T08:55:11.569Z,5092
2016-10-23T08:56:12.200Z,4152
2016-10-23T08:57:11.902Z,4148
2016-10-23T08:58:11.967Z,4504
2016-10-23T08:59:12.022Z,5676
2016-10-23T09:00:11.966Z,2192
2016-10-23T09:01:12.344Z,1960
2016-10-23T09:02:11.934Z,2132
2016-10-23T09:03:12.042Z,4476
2016-10-23T09:04:12.001Z,3476
2016-10-23T09:05:12.325Z,5192
2016-10-23T09:06:11.338Z,3452
2016-10-23T09:07:11.985Z,2524
2016-10-23T09:08:12.027Z,3100
2016-10-23T09:09:11.728Z,3404
2016-10-23T09:10:11.779Z,2260
2016-10-23T09:11:11.377Z,2132
2016-10-23T09:12:12.009Z,1988
2016-10-23T09:13:11.716Z,2580
2016-10-23T09:14:12.075Z,2460
2016-10-23T09:15:11.822Z,3252
2016-10-23T09:16:11.727Z,2884
2016-10-23T09:17:11.754Z,2852
2016-10-23T09:18:12.419Z,2688
2016-10-23T09:19:12.001Z,2688
2016-10-23T09:20:12.123Z,2736
2016-10-23T09:21:12.146Z,2328
2016-10-23T09:22:11.825Z,1844
2016-10-23T09:23:12.404Z,1748
2016-10-23T09:24:11.788Z,1640
2016-10-23T09:25:12.178Z,1536
2016-10-23T09:26:11.804Z,1592
2016-10-23T09:27:11.503Z,1672
2016-10-23T09:28:12.132Z,1644
2016-10-23T09:29:11.842Z,1516
2016-10-23T09:30:12.197Z,1612
2016-10-23T09:31:11.944Z,1984
2016-10-23T09:32:12.015Z,2600
2016-10-23T09:33:11.925Z,2500
2016-10-23T09:34:12.577Z,2116
2016-10-23T09:35:11.993Z,1720
2016-10-23T09:36:11.954Z,1492
2016-10-23T09:37:12.065Z,1336
2016-10-23T09:38:12.519Z,1184
2016-10-23T09:39:12.272Z,1076
2016-10-23T09:40:12.247Z,1044
2016-10-23T09:41:12.564Z,1068
2016-10-23T09:42:12.656Z,1116
2016-10-23T09:43:12.242Z,1112
2016-10-23T09:44:12.376Z,1168
2016-10-23T09:45:12.285Z,1268
2016-10-23T09:46:12.595Z,1464
2016-10-23T09:47:12.129Z,1272
2016-10-23T09:48:12.017Z,1220
2016-10-23T09:49:12.478Z,1192
2016-10-23T09:50:12.520Z,1216
2016-10-23T09:51:12.425Z,1196
2016-10-23T09:52:12.005Z,1192
2016-10-23T09:53:12.418Z,1188
2016-10-23T09:54:12.021Z,1184
2016-10-23T09:55:12.074Z,1152
2016-10-23T09:56:12.401Z,1248
2016-10-23T09:57:12.400Z,1392
2016-10-23T09:58:12.718Z,1372
2016-10-23T09:59:12.060Z,1300
2016-10-23T10:00:12.062Z,1132
2016-10-23T10:01:12.468Z,1084
2016-10-23T10:02:12.280Z,1116
2016-10-23T10:03:12.442Z,1188
2016-10-23T10:04:13.169Z,1184
2016-10-23T10:05:12.843Z,1144
2016-10-23T10:06:12.228Z,1128
2016-10-23T10:07:12.658Z,1040
2016-10-23T10:08:13.005Z,1040
2016-10-23T10:09:12.268Z,1128
2016-10-23T10:10:13.213Z,1136
2016-10-23T10:11:12.786Z,1184
2016-10-23T10:12:12.844Z,1224
2016-10-23T10:13:12.152Z,1232
2016-10-23T10:14:12.163Z,1228
2016-10-23T10:15:12.496Z,1232
2016-10-23T10:16:12.540Z,1288
2016-10-23T10:17:12.867Z,1152
2016-10-23T10:18:12.542Z,1096
2016-10-23T10:19:12.203Z,1048
2016-10-23T10:20:11.950Z,1008
2016-10-23T10:21:13.099Z,1036
2016-10-23T10:22:12.901Z,1144
2016-10-23T10:23:12.281Z,1196
2016-10-23T10:24:12.564Z,1192
2016-10-23T10:25:12.562Z,1136
2016-10-23T10:26:12.311Z,1116
2016-10-23T10:27:12.939Z,1128
2016-10-23T10:28:12.897Z,1116
2016-10-23T10:29:12.323Z,1096
2016-10-23T10:30:12.893Z,1088
2016-10-23T10:31:12.600Z,1156
2016-10-23T10:32:12.978Z,1228
2016-10-23T10:33:12.409Z,1248
2016-10-23T10:34:12.695Z,1260
2016-10-23T10:35:12.334Z,1248
2016-10-23T10:36:13.004Z,1240
2016-10-23T10:37:12.380Z,1280
2016-10-23T10:38:12.341Z,1224
2016-10-23T10:39:12.660Z,1256
2016-10-23T10:40:12.354Z,1264
2016-10-23T10:41:12.421Z,1284
2016-10-23T10:42:12.735Z,1276
2016-10-23T10:43:12.382Z,1268
2016-10-23T10:44:12.384Z,1240
2016-10-23T10:45:12.718Z,1188
2016-10-23T10:46:13.029Z,1176
2016-10-23T10:47:12.719Z,1224
2016-10-23T10:48:12.456Z,1228
2016-10-23T10:49:12.485Z,1208
2016-10-23T10:50:12.746Z,1224
2016-10-23T10:51:12.816Z,1280
2016-10-23T10:52:12.808Z,1312
2016-10-23T10:53:12.500Z,1348
2016-10-23T10:54:12.175Z,1300
2016-10-23T10:55:12.470Z,1304
2016-10-23T10:56:12.585Z,1336
2016-10-23T10:57:12.849Z,1348
2016-10-23T10:58:12.541Z,1324
2016-10-23T10:59:12.861Z,1252
2016-10-23T11:00:12.812Z,1224
2016-10-23T11:01:12.824Z,1208
2016-10-23T11:02:12.521Z,1164
2016-10-23T11:03:12.524Z,1120
2016-10-23T11:04:12.230Z,1096
2016-10-23T11:05:12.230Z,1104
2016-10-23T11:06:13.264Z,1148
2016-10-23T11:07:12.922Z,1168
2016-10-23T11:08:12.301Z,1260
2016-10-23T11:09:12.937Z,1336
2016-10-23T11:10:12.892Z,1260
2016-10-23T11:11:12.621Z,1280
2016-10-23T11:12:12.953Z,1308
2016-10-23T11:13:13.228Z,1268
2016-10-23T11:14:12.971Z,1220
2016-10-23T11:15:12.405Z,1172
2016-10-23T11:16:13.253Z,1104
2016-10-23T11:17:12.627Z,1100
2016-10-23T11:18:12.953Z,1136
2016-10-23T11:19:12.329Z,1136
2016-10-23T11:20:12.751Z,1188
2016-10-23T11:21:12.970Z,1192
2016-10-23T11:22:12.977Z,1212
2016-10-23T11:23:13.048Z,1220
2016-10-23T11:24:13.041Z,1188
2016-10-23T11:25:12.740Z,1160
2016-10-23T11:26:13.382Z,1168
2016-10-23T11:27:12.700Z,1200
2016-10-23T11:28:13.073Z,1184
2016-10-23T11:29:12.721Z,1112
2016-10-23T11:30:12.759Z,1068
2016-10-23T11:31:12.824Z,1016
2016-10-23T11:32:12.791Z,972
2016-10-23T11:33:12.796Z,972
2016-10-23T11:34:13.390Z,936
2016-10-23T11:35:13.419Z,904
2016-10-23T11:36:13.127Z,932
2016-10-23T11:37:13.181Z,904
2016-10-23T11:38:13.409Z,932
2016-10-23T11:39:12.474Z,900
2016-10-23T11:40:13.507Z,928
2016-10-23T11:41:13.119Z,976
2016-10-23T11:42:13.121Z,1000
2016-10-23T11:43:13.130Z,988
2016-10-23T11:44:13.134Z,1016
2016-10-23T11:45:13.145Z,1056
2016-10-23T11:46:13.255Z,1044
2016-10-23T11:47:13.159Z,1060
2016-10-23T11:48:12.585Z,1016
2016-10-23T11:49:13.222Z,968
2016-10-23T11:50:12.605Z,976
2016-10-23T11:51:13.233Z,1004
2016-10-23T11:52:12.934Z,1004
2016-10-23T11:53:13.208Z,984
2016-10-23T11:54:13.658Z,976
2016-10-23T11:55:12.586Z,944
2016-10-23T11:56:13.531Z,888
2016-10-23T11:57:13.594Z,868
2016-10-23T11:58:12.977Z,868
2016-10-23T11:59:12.619Z,896
2016-10-23T12:00:12.629Z,896
2016-10-23T12:01:13.257Z,884
2016-10-23T12:02:13.282Z,876
2016-10-23T12:03:13.322Z,876
2016-10-23T12:04:13.278Z,868
2016-10-23T12:05:13.751Z,848
2016-10-23T12:06:13.085Z,832
2016-10-23T12:07:13.306Z,816
2016-10-23T12:08:13.312Z,808
2016-10-23T12:09:13.364Z,820
2016-10-23T12:10:13.011Z,820
2016-10-23T12:11:13.340Z,816
2016-10-23T12:12:13.436Z,836
2016-10-23T12:13:13.381Z,848
2016-10-23T12:14:13.389Z,852
2016-10-23T12:15:13.360Z,840
2016-10-23T12:16:13.726Z,776
2016-10-23T12:17:13.686Z,808
2016-10-23T12:18:13.422Z,816
2016-10-23T12:19:13.389Z,816
2016-10-23T12:20:13.117Z,812
2016-10-23T12:21:13.780Z,796
2016-10-23T12:22:13.461Z,804
2016-10-23T12:23:13.470Z,792
2016-10-23T12:24:13.168Z,788
2016-10-23T12:25:13.485Z,808
2016-10-23T12:26:12.833Z,824
2016-10-23T12:27:13.859Z,820
2016-10-23T12:28:13.816Z,788
2016-10-23T12:29:13.859Z,780
2016-10-23T12:30:13.158Z,788
2016-10-23T12:31:12.849Z,800
2016-10-23T12:32:13.186Z,792
2016-10-23T12:33:13.496Z,780
2016-10-23T12:34:13.496Z,788
2016-10-23T12:35:13.589Z,784
2016-10-23T12:36:13.276Z,780
2016-10-23T12:37:12.898Z,780
2016-10-23T12:38:13.218Z,784
2016-10-23T12:39:13.530Z,788
2016-10-23T12:40:13.230Z,780
2016-10-23T12:41:13.696Z,776
2016-10-23T12:42:13.610Z,772
2016-10-23T12:43:13.558Z,776
2016-10-23T12:44:13.570Z,772
2016-10-23T12:45:13.741Z,776
2016-10-23T12:46:13.367Z,772
2016-10-23T12:47:13.359Z,768
2016-10-23T12:48:13.960Z,764
2016-10-23T12:49:13.610Z,768
2016-10-23T12:50:13.612Z,768
2016-10-23T12:51:13.720Z,768
2016-10-23T12:52:13.939Z,776
2016-10-23T12:53:13.360Z,784
2016-10-23T12:54:13.330Z,788
2016-10-23T12:55:13.334Z,796
2016-10-23T12:56:13.662Z,832
2016-10-23T12:57:13.975Z,984
2016-10-23T12:58:13.980Z,2180
2016-10-23T12:59:13.363Z,3400
2016-10-23T13:00:13.736Z,1884
2016-10-23T13:01:13.429Z,1192
2016-10-23T13:02:13.750Z,2384
2016-10-23T13:03:13.399Z,2344
2016-10-23T13:04:13.399Z,1268
2016-10-23T13:05:13.724Z,1096
2016-10-23T13:06:13.727Z,1172
2016-10-23T13:07:13.110Z,1160
2016-10-23T13:08:14.059Z,1600
2016-10-23T13:09:13.762Z,3868
2016-10-23T13:10:13.445Z,4884
2016-10-23T13:11:13.455Z,3448
2016-10-23T13:12:13.459Z,2324
2016-10-23T13:13:13.834Z,1524
2016-10-23T13:14:13.210Z,1132
2016-10-23T13:15:13.534Z,1132
2016-10-23T13:16:13.851Z,1304
2016-10-23T13:17:13.864Z,1792
2016-10-23T13:18:13.508Z,2072
2016-10-23T13:19:14.188Z,4132
2016-10-23T13:20:13.884Z,3680
2016-10-23T13:21:14.152Z,1920
2016-10-23T13:22:13.848Z,1852
2016-10-23T13:23:14.227Z,1368
2016-10-23T13:24:13.866Z,1320
2016-10-23T13:25:13.926Z,1388
2016-10-23T13:26:13.567Z,1544
2016-10-23T13:27:14.206Z,1296
2016-10-23T13:28:13.324Z,864
2016-10-23T13:29:13.903Z,796
2016-10-23T13:30:13.685Z,780
2016-10-23T13:31:13.706Z,760
2016-10-23T13:32:13.353Z,752
2016-10-23T13:33:13.986Z,740
2016-10-23T13:34:13.945Z,724
2016-10-23T13:35:13.688Z,720
2016-10-23T13:36:13.955Z,724
2016-10-23T13:37:13.966Z,724
2016-10-23T13:38:13.707Z,728
2016-10-23T13:39:13.668Z,732
2016-10-23T13:40:13.675Z,720
2016-10-23T13:41:13.683Z,708
2016-10-23T13:42:13.430Z,700
2016-10-23T13:43:14.369Z,700
2016-10-23T13:44:14.111Z,688
2016-10-23T13:45:13.445Z,680
2016-10-23T13:46:13.765Z,672
2016-10-23T13:47:13.411Z,668
2016-10-23T13:48:14.105Z,668
2016-10-23T13:49:14.047Z,644
2016-10-23T13:50:13.799Z,632
2016-10-23T13:51:13.499Z,612
2016-10-23T13:52:14.122Z,608
2016-10-23T13:53:14.082Z,636
2016-10-23T13:54:13.783Z,632
2016-10-23T13:55:14.195Z,624
2016-10-23T13:56:14.223Z,620
2016-10-23T13:57:14.115Z,612
2016-10-23T13:58:13.802Z,608
2016-10-23T13:59:14.178Z,608
2016-10-23T14:00:13.819Z,608
2016-10-23T14:01:14.501Z,612